Time;durP1;ratioP1;P1;durP2;ratioP2;P2;SDS_P1;SDS_P2;PMS_P1;PMS_P2;Temp;Humidity;BMP_temperature;BMP_pressure;BME280_temperature;BME280_humidity;BME280_pressure;Samples;Min_cycle;Max_cycle;Signal;HPM_P1;HPM_P2
2022/07/15 00:01:36;;;;;;;3.78;1.20;;;19.00;78.10;;;;;;5053009;28;20209;-70
2022/07/15 00:04:03;;;;;;;2.00;1.27;;;19.00;78.20;;;;;;5052477;28;20221;-69
2022/07/15 00:06:30;;;;;;;5.18;1.48;;;19.00;78.30;;;;;;5052859;28;20206;-68
2022/07/15 00:08:56;;;;;;;3.17;1.17;;;19.00;78.40;;;;;;5052660;28;20202;-69
2022/07/15 00:11:24;;;;;;;4.53;1.45;;;19.00;78.50;;;;;;5044825;28;20225;-69
2022/07/15 00:13:51;;;;;;;2.25;1.27;;;18.90;78.50;;;;;;5033206;28;20310;-68
2022/07/15 00:16:18;;;;;;;4.25;1.33;;;18.90;78.60;;;;;;5053117;28;20559;-69
2022/07/15 00:18:45;;;;;;;5.15;2.60;;;18.90;78.60;;;;;;5039761;28;20609;-69
2022/07/15 00:21:11;;;;;;;2.28;1.17;;;18.90;78.80;;;;;;5050683;28;20225;-68
2022/07/15 00:23:38;;;;;;;3.10;1.35;;;18.90;79.00;;;;;;5052568;28;20216;-69
2022/07/15 00:26:05;;;;;;;3.55;1.20;;;18.80;78.90;;;;;;5051349;28;20226;-69
2022/07/15 00:28:33;;;;;;;3.17;1.27;;;18.80;78.90;;;;;;5052324;28;20209;-69
2022/07/15 00:31:00;;;;;;;1.98;1.15;;;18.80;78.90;;;;;;5052807;28;20210;-69
2022/07/15 00:33:27;;;;;;;1.40;1.08;;;18.80;79.10;;;;;;5052914;28;20571;-69
2022/07/15 00:35:53;;;;;;;5.22;1.10;;;18.80;79.30;;;;;;5051345;28;20682;-69
2022/07/15 00:38:20;;;;;;;3.72;1.00;;;18.80;79.50;;;;;;5055937;28;20213;-69
2022/07/15 00:40:49;;;;;;;2.00;0.88;;;18.70;79.60;;;;;;5056402;28;20212;-69
2022/07/15 00:43:17;;;;;;;5.03;1.27;;;18.70;79.90;;;;;;5055868;28;20209;-69
2022/07/15 00:45:45;;;;;;;3.13;1.05;;;18.80;80.10;;;;;;5056161;28;20240;-68
2022/07/15 00:48:13;;;;;;;2.83;1.27;;;18.70;80.10;;;;;;5057211;28;20202;-68
2022/07/15 00:50:40;;;;;;;4.95;1.35;;;18.70;80.10;;;;;;5055812;28;20240;-68
2022/07/15 00:53:08;;;;;;;2.00;1.00;;;19.00;80.70;;;;;;5044684;28;20581;-69
2022/07/15 00:55:40;;;;;;;2.47;0.95;;;18.70;80.50;;;;;;5054234;28;20248;-68
2022/07/15 00:58:11;;;;;;;3.55;1.48;;;18.80;80.70;;;;;;5056199;28;20659;-70
2022/07/15 01:00:38;;;;;;;4.82;1.52;;;18.70;80.70;;;;;;5056335;28;20584;-67
2022/07/15 01:03:08;;;;;;;4.78;1.48;;;18.70;80.80;;;;;;5055265;28;20214;-67
2022/07/15 01:05:34;;;;;;;3.63;1.20;;;18.80;81.20;;;;;;5054032;28;20225;-67
2022/07/15 01:08:01;;;;;;;3.35;1.33;;;18.80;81.20;;;;;;5056113;28;20217;-66
2022/07/15 01:10:28;;;;;;;2.50;1.00;;;18.80;81.40;;;;;;5056123;28;20209;-66
2022/07/15 01:12:55;;;;;;;3.20;1.13;;;18.70;81.40;;;;;;5056137;28;20244;-67
2022/07/15 01:15:22;;;;;;;4.60;1.42;;;18.70;81.40;;;;;;5056043;28;20217;-67
2022/07/15 01:17:49;;;;;;;2.17;1.10;;;18.80;81.60;;;;;;5055645;28;20209;-68
2022/07/15 01:20:17;;;;;;;2.35;1.05;;;18.80;81.70;;;;;;5044847;28;20203;-67
2022/07/15 01:22:47;;;;;;;2.40;1.33;;;18.80;81.80;;;;;;5048247;28;20221;-67
2022/07/15 01:25:15;;;;;;;2.17;1.10;;;18.80;81.90;;;;;;5045692;28;20240;-68
2022/07/15 01:27:42;;;;;;;1.70;1.02;;;18.80;81.90;;;;;;5055551;28;20253;-67
2022/07/15 01:30:09;;;;;;;3.70;1.08;;;18.80;82.00;;;;;;5056017;28;20229;-66
2022/07/15 01:32:36;;;;;;;2.60;1.17;;;18.70;81.90;;;;;;5055182;28;20612;-68
2022/07/15 01:35:03;;;;;;;3.60;1.45;;;18.70;82.10;;;;;;5055190;28;20201;-68
2022/07/15 01:37:30;;;;;;;2.45;1.13;;;18.70;82.20;;;;;;5054166;28;20365;-67
2022/07/15 01:39:58;;;;;;;3.55;1.10;;;18.80;82.40;;;;;;5055441;28;20209;-67
2022/07/15 01:42:25;;;;;;;3.10;1.00;;;18.70;82.40;;;;;;5054972;28;20202;-67
2022/07/15 01:44:52;;;;;;;2.13;0.95;;;18.70;82.60;;;;;;5054691;28;20225;-67
2022/07/15 01:47:18;;;;;;;2.55;0.80;;;18.70;82.80;;;;;;5054758;28;20576;-67
2022/07/15 01:49:45;;;;;;;3.80;1.05;;;18.60;82.80;;;;;;5053898;28;20630;-69
2022/07/15 01:52:12;;;;;;;4.40;1.10;;;18.60;83.00;;;;;;5054982;28;20601;-67
2022/07/15 01:54:39;;;;;;;4.68;1.08;;;18.60;83.30;;;;;;5054137;28;20206;-67
2022/07/15 01:57:07;;;;;;;3.97;1.17;;;18.50;83.50;;;;;;5055052;28;20210;-67
2022/07/15 01:59:34;;;;;;;3.28;1.33;;;18.50;83.70;;;;;;5054502;28;20217;-67
2022/07/15 02:02:01;;;;;;;2.75;1.33;;;18.40;83.70;;;;;;5054184;28;20581;-68
2022/07/15 02:04:28;;;;;;;3.88;1.20;;;18.40;83.70;;;;;;5054554;28;20213;-66
2022/07/15 02:06:55;;;;;;;3.50;1.13;;;18.30;83.90;;;;;;5055204;28;20656;-68
2022/07/15 02:09:21;;;;;;;4.28;1.15;;;18.30;84.10;;;;;;5055162;28;20202;-68
2022/07/15 02:11:48;;;;;;;3.33;1.25;;;18.30;84.30;;;;;;5053739;28;20217;-67
2022/07/15 02:14:16;;;;;;;6.13;1.40;;;18.20;84.40;;;;;;5054660;28;20209;-67
2022/07/15 02:16:43;;;;;;;3.50;1.50;;;18.20;84.60;;;;;;5054756;28;20225;-67
2022/07/15 02:19:10;;;;;;;3.13;1.20;;;18.20;84.90;;;;;;5054313;28;20210;-67
2022/07/15 02:21:37;;;;;;;3.83;1.60;;;18.10;85.10;;;;;;5045600;28;20210;-67
2022/07/15 02:24:05;;;;;;;3.17;1.77;;;18.10;85.40;;;;;;5053374;28;20209;-67
2022/07/15 02:26:31;;;;;;;5.20;1.98;;;18.00;85.70;;;;;;5039254;28;20621;-68
2022/07/15 02:28:59;;;;;;;2.95;1.35;;;18.00;85.90;;;;;;5054413;28;20210;-67
2022/07/15 02:31:27;;;;;;;2.92;1.52;;;17.90;86.10;;;;;;5054513;28;20210;-68
2022/07/15 02:33:54;;;;;;;4.45;1.55;;;17.90;86.50;;;;;;5054006;28;20220;-68
2022/07/15 02:36:21;;;;;;;3.88;1.25;;;17.90;86.60;;;;;;5053868;28;20202;-67
2022/07/15 02:38:48;;;;;;;3.65;1.58;;;17.90;87.00;;;;;;5040954;28;20210;-68
2022/07/15 02:41:14;;;;;;;2.30;1.08;;;17.90;87.30;;;;;;5055048;28;20209;-68
2022/07/15 02:43:42;;;;;;;4.72;1.70;;;17.80;87.20;;;;;;5041217;28;20205;-67
2022/07/15 02:46:10;;;;;;;5.72;1.45;;;17.80;87.30;;;;;;5054699;28;20275;-68
2022/07/15 02:48:38;;;;;;;3.75;2.10;;;17.70;87.40;;;;;;5055598;28;20218;-68
2022/07/15 02:51:05;;;;;;;4.03;1.60;;;17.70;87.40;;;;;;5054970;28;20270;-68
2022/07/15 02:53:33;;;;;;;4.70;1.92;;;17.70;88.00;;;;;;5053868;28;20227;-67
2022/07/15 02:56:00;;;;;;;4.38;1.70;;;17.60;88.20;;;;;;5043110;28;20206;-68
2022/07/15 02:58:27;;;;;;;3.78;1.80;;;17.60;88.60;;;;;;5054556;28;20210;-67
2022/07/15 03:00:54;;;;;;;4.32;1.85;;;17.50;89.00;;;;;;5039174;28;20198;-67
2022/07/15 03:03:20;;;;;;;5.53;1.60;;;17.40;89.30;;;;;;5054615;28;20210;-67
2022/07/15 03:05:49;;;;;;;3.08;1.52;;;17.30;89.70;;;;;;5054081;28;20240;-67
2022/07/15 03:08:16;;;;;;;4.32;1.50;;;17.30;90.00;;;;;;5043995;28;20241;-67
2022/07/15 03:10:43;;;;;;;3.20;1.70;;;17.20;90.10;;;;;;5051018;28;20213;-68
2022/07/15 03:13:10;;;;;;;2.53;1.38;;;17.20;90.20;;;;;;5054295;28;20210;-67
2022/07/15 03:15:37;;;;;;;2.58;1.30;;;17.20;90.40;;;;;;5054553;28;20217;-67
2022/07/15 03:18:03;;;;;;;3.15;1.35;;;17.10;90.60;;;;;;5053566;28;20212;-67
2022/07/15 03:20:31;;;;;;;2.72;1.10;;;17.10;90.80;;;;;;5046970;28;20207;-67
2022/07/15 03:22:59;;;;;;;3.23;1.07;;;17.00;90.90;;;;;;5054185;28;20222;-67
2022/07/15 03:25:26;;;;;;;3.42;1.38;;;17.10;91.00;;;;;;5053894;28;20724;-67
2022/07/15 03:27:52;;;;;;;3.20;1.40;;;17.10;91.00;;;;;;5053719;28;20213;-68
2022/07/15 03:30:20;;;;;;;7.00;1.53;;;17.10;91.00;;;;;;5054448;28;20198;-67
2022/07/15 03:32:47;;;;;;;2.00;1.38;;;17.10;91.00;;;;;;5054017;28;20202;-67
2022/07/15 03:35:14;;;;;;;2.13;1.10;;;17.10;91.10;;;;;;5052506;28;20241;-68
2022/07/15 03:37:41;;;;;;;2.27;1.60;;;17.10;91.20;;;;;;5054393;28;20650;-67
2022/07/15 03:40:11;;;;;;;2.63;1.20;;;17.20;91.20;;;;;;5054182;28;20287;-67
2022/07/15 03:42:38;;;;;;;2.22;1.08;;;17.20;91.30;;;;;;5053983;28;20213;-67
2022/07/15 03:45:06;;;;;;;2.40;1.40;;;17.20;91.10;;;;;;5053259;28;20210;-67
2022/07/15 03:47:32;;;;;;;3.07;1.00;;;17.30;91.10;;;;;;5052934;28;20248;-68
2022/07/15 03:49:59;;;;;;;3.10;1.10;;;17.30;91.10;;;;;;5052553;28;20217;-68
2022/07/15 03:52:26;;;;;;;3.60;1.00;;;17.20;91.00;;;;;;5054041;28;20221;-67
2022/07/15 03:54:53;;;;;;;7.03;2.05;;;17.20;91.00;;;;;;5054044;28;20213;-68
2022/07/15 03:57:21;;;;;;;3.22;1.23;;;17.30;91.10;;;;;;5053857;28;20205;-67
2022/07/15 03:59:47;;;;;;;4.10;2.40;;;17.30;90.90;;;;;;5054109;28;20218;-67
2022/07/15 04:02:14;;;;;;;3.35;1.20;;;17.30;90.90;;;;;;5054277;28;20202;-68
2022/07/15 04:04:41;;;;;;;2.10;1.23;;;17.30;90.90;;;;;;5053873;28;20214;-68
2022/07/15 04:07:08;;;;;;;5.05;1.80;;;17.40;91.30;;;;;;5053308;28;20223;-68
2022/07/15 04:09:34;;;;;;;2.00;1.20;;;17.50;91.00;;;;;;5053352;28;20682;-67
2022/07/15 04:12:01;;;;;;;3.75;0.82;;;17.50;91.00;;;;;;5052994;28;20213;-67
2022/07/15 04:14:29;;;;;;;2.28;0.98;;;17.50;90.90;;;;;;5053195;28;20251;-67
2022/07/15 04:16:56;;;;;;;4.95;1.35;;;17.60;91.00;;;;;;5053746;28;20209;-68
2022/07/15 04:19:23;;;;;;;4.43;1.67;;;17.60;90.90;;;;;;5053146;28;20222;-68
2022/07/15 04:21:49;;;;;;;1.20;1.10;;;17.70;90.90;;;;;;5045270;28;20238;-67
2022/07/15 04:24:16;;;;;;;2.55;1.00;;;17.80;90.80;;;;;;5051778;28;20217;-67
2022/07/15 04:26:43;;;;;;;3.97;1.00;;;17.80;90.60;;;;;;5053641;28;20230;-67
2022/07/15 04:29:09;;;;;;;2.80;1.20;;;17.90;90.50;;;;;;5052306;28;20210;-67
2022/07/15 04:31:37;;;;;;;3.63;0.95;;;17.90;90.40;;;;;;5033518;28;20221;-68
2022/07/15 04:34:04;;;;;;;1.92;0.90;;;18.00;90.30;;;;;;5046770;28;20206;-68
2022/07/15 04:36:31;;;;;;;3.45;1.60;;;18.00;90.30;;;;;;5053360;28;20662;-68
2022/07/15 04:38:58;;;;;;;2.38;1.10;;;18.00;90.20;;;;;;5051410;28;20212;-67
2022/07/15 04:41:24;;;;;;;2.03;1.02;;;18.10;90.10;;;;;;5046702;28;20706;-66
2022/07/15 04:43:51;;;;;;;1.58;1.00;;;18.10;90.00;;;;;;5039171;28;20212;-66
2022/07/15 04:46:18;;;;;;;1.38;0.95;;;18.20;90.00;;;;;;5051312;28;20245;-68
2022/07/15 04:51:30;;;;;;;3.05;1.27;;;18.30;89.20;;;;;;5053087;28;20205;-67
2022/07/15 04:53:57;;;;;;;3.22;0.98;;;18.40;88.70;;;;;;5052914;28;20624;-67
2022/07/15 04:56:24;;;;;;;1.88;1.00;;;18.40;88.30;;;;;;5053129;28;20649;-67
2022/07/15 04:58:50;;;;;;;2.78;1.10;;;18.50;88.20;;;;;;5038887;28;20209;-69
2022/07/15 05:01:17;;;;;;;2.15;1.42;;;18.50;88.00;;;;;;5052854;28;20206;-67
2022/07/15 05:03:45;;;;;;;4.60;1.98;;;18.50;87.50;;;;;;5048375;28;20218;-67
2022/07/15 05:06:12;;;;;;;2.67;0.80;;;18.60;87.30;;;;;;5052484;28;20229;-66
2022/07/15 05:08:39;;;;;;;3.58;1.15;;;18.70;86.90;;;;;;5052856;28;20304;-67
2022/07/15 05:11:05;;;;;;;1.58;1.13;;;18.70;86.00;;;;;;5053019;28;20217;-68
2022/07/15 05:13:32;;;;;;;7.68;1.95;;;18.70;85.60;;;;;;5052966;28;20202;-66
2022/07/15 05:15:59;;;;;;;1.77;1.35;;;18.80;85.40;;;;;;5052689;28;20276;-67
2022/07/15 05:18:26;;;;;;;2.50;1.20;;;18.80;85.20;;;;;;5052309;28;20229;-67
2022/07/15 05:20:54;;;;;;;2.20;1.20;;;18.80;84.90;;;;;;5039436;28;20637;-66
2022/07/15 05:23:21;;;;;;;1.77;1.20;;;18.80;85.10;;;;;;5054427;28;20206;-66
2022/07/15 05:25:48;;;;;;;2.83;1.40;;;18.80;85.20;;;;;;5056534;28;20283;-68
2022/07/15 05:28:15;;;;;;;2.95;1.38;;;18.80;85.10;;;;;;5056347;28;20213;-67
2022/07/15 05:30:41;;;;;;;4.03;1.33;;;18.90;85.30;;;;;;5056535;28;20210;-67
2022/07/15 05:33:09;;;;;;;1.75;1.00;;;19.00;85.40;;;;;;5056265;28;20587;-68
2022/07/15 05:35:35;;;;;;;2.72;1.00;;;19.00;84.90;;;;;;5055512;28;20202;-67
2022/07/15 05:38:03;;;;;;;1.45;0.88;;;19.00;84.30;;;;;;5056715;28;20217;-68
2022/07/15 05:40:30;;;;;;;2.92;0.95;;;19.10;84.00;;;;;;5055828;28;20742;-68
2022/07/15 05:42:57;;;;;;;3.83;0.75;;;19.10;83.10;;;;;;5055733;28;20220;-67
2022/07/15 05:45:24;;;;;;;2.45;0.73;;;19.20;82.70;;;;;;5055440;28;20202;-68
2022/07/15 05:47:52;;;;;;;1.33;0.98;;;19.30;82.40;;;;;;5054677;28;20230;-67
2022/07/15 05:50:20;;;;;;;4.18;1.33;;;19.30;82.00;;;;;;5054148;28;20210;-67
2022/07/15 05:52:47;;;;;;;2.90;0.85;;;19.50;81.80;;;;;;5044699;28;20272;-66
2022/07/15 05:55:15;;;;;;;1.50;0.80;;;19.50;81.40;;;;;;5041524;28;20202;-67
2022/07/15 05:57:42;;;;;;;2.78;0.77;;;19.60;81.40;;;;;;5055298;28;20662;-68
2022/07/15 06:00:10;;;;;;;2.03;1.00;;;19.70;81.60;;;;;;5055368;28;20676;-67
2022/07/15 06:02:37;;;;;;;2.17;1.02;;;19.90;81.80;;;;;;5041249;28;20323;-67
2022/07/15 06:05:04;;;;;;;1.50;0.85;;;20.00;81.40;;;;;;5055251;28;20217;-67
2022/07/15 06:07:31;;;;;;;1.33;0.82;;;20.00;81.40;;;;;;5053941;28;20751;-68
2022/07/15 06:09:58;;;;;;;3.65;0.80;;;20.10;81.50;;;;;;5055437;28;20598;-68
2022/07/15 06:12:26;;;;;;;2.03;0.93;;;20.10;81.60;;;;;;5055310;28;20655;-67
2022/07/15 06:14:53;;;;;;;3.92;0.88;;;20.10;81.50;;;;;;5045406;28;20217;-68
2022/07/15 06:17:20;;;;;;;1.67;1.00;;;20.00;81.50;;;;;;5036912;28;20203;-67
2022/07/15 06:19:46;;;;;;;2.50;1.15;;;20.00;81.80;;;;;;5053610;28;20242;-68
2022/07/15 06:22:13;;;;;;;1.85;0.90;;;19.90;82.10;;;;;;5048689;28;20216;-67
2022/07/15 06:24:40;;;;;;;3.63;0.82;;;19.90;82.70;;;;;;5053699;28;20228;-67
2022/07/15 06:27:07;;;;;;;3.40;0.90;;;19.90;83.40;;;;;;5055274;28;20719;-67
2022/07/15 06:29:35;;;;;;;1.55;1.00;;;19.80;83.80;;;;;;5053912;28;20285;-67
2022/07/15 06:32:02;;;;;;;3.72;1.15;;;19.80;84.50;;;;;;5054919;28;20206;-67
2022/07/15 06:34:29;;;;;;;3.03;1.00;;;19.70;85.60;;;;;;5053673;28;20281;-67
2022/07/15 06:36:55;;;;;;;4.28;1.00;;;19.70;85.00;;;;;;5055124;28;20194;-68
2022/07/15 06:39:22;;;;;;;1.65;0.90;;;19.60;85.00;;;;;;5055042;28;20214;-68
2022/07/15 06:41:49;;;;;;;5.30;1.40;;;19.60;85.30;;;;;;5053443;28;20263;-68
2022/07/15 06:44:16;;;;;;;3.78;1.10;;;19.60;85.70;;;;;;5055402;28;20598;-68
2022/07/15 06:46:44;;;;;;;2.63;1.10;;;19.70;86.40;;;;;;5053262;28;20233;-67
2022/07/15 06:49:11;;;;;;;2.85;0.80;;;19.70;86.30;;;;;;5041960;28;20210;-68
2022/07/15 06:51:38;;;;;;;1.88;1.00;;;19.70;86.50;;;;;;5054895;28;20300;-68
2022/07/15 06:54:06;;;;;;;1.20;0.95;;;19.70;86.50;;;;;;5041026;28;20233;-67
2022/07/15 06:56:33;;;;;;;2.83;1.10;;;19.80;86.20;;;;;;5054482;28;20257;-68
2022/07/15 06:59:00;;;;;;;0.98;0.85;;;19.80;85.80;;;;;;5053509;28;20228;-68
2022/07/15 07:01:26;;;;;;;3.72;1.10;;;19.80;85.80;;;;;;5054640;28;20210;-68
2022/07/15 07:03:55;;;;;;;1.15;1.00;;;19.80;85.40;;;;;;5053933;28;20205;-68
2022/07/15 07:06:22;;;;;;;2.97;0.88;;;19.80;85.20;;;;;;5045479;28;20595;-68
2022/07/15 07:08:49;;;;;;;1.92;1.35;;;20.00;85.30;;;;;;5049031;28;20210;-68
2022/07/15 07:11:17;;;;;;;2.42;1.10;;;20.00;84.90;;;;;;5053836;28;20596;-68
2022/07/15 07:13:44;;;;;;;3.45;1.00;;;20.00;84.50;;;;;;5053783;28;20637;-68
2022/07/15 07:16:10;;;;;;;2.97;1.27;;;19.90;83.80;;;;;;5053006;28;20202;-67
2022/07/15 07:18:37;;;;;;;4.20;2.28;;;19.90;84.10;;;;;;5053263;28;20213;-67
2022/07/15 07:21:06;;;;;;;3.70;1.40;;;20.00;83.90;;;;;;5053747;28;20198;-67
2022/07/15 07:23:34;;;;;;;3.40;1.17;;;20.10;83.80;;;;;;5054199;28;20237;-67
2022/07/15 07:26:01;;;;;;;2.53;1.00;;;20.20;83.80;;;;;;5053452;28;20737;-67
2022/07/15 07:28:27;;;;;;;2.28;1.05;;;20.20;83.50;;;;;;5054167;28;20225;-68
2022/07/15 07:30:54;;;;;;;2.22;1.27;;;20.30;83.60;;;;;;5053577;28;20239;-68
2022/07/15 07:33:21;;;;;;;4.85;1.13;;;20.30;83.30;;;;;;5052423;28;20649;-67
2022/07/15 07:35:48;;;;;;;2.05;1.30;;;20.30;83.90;;;;;;5053780;28;20221;-68
2022/07/15 07:38:16;;;;;;;3.33;1.33;;;20.30;84.30;;;;;;5051588;28;20205;-69
2022/07/15 07:40:43;;;;;;;3.55;1.30;;;20.40;83.90;;;;;;5041536;28;20221;-68
2022/07/15 07:43:10;;;;;;;2.90;1.38;;;20.50;83.90;;;;;;5053511;28;20213;-68
2022/07/15 07:45:37;;;;;;;2.63;1.17;;;20.60;84.00;;;;;;5053443;28;20221;-67
2022/07/15 07:48:04;;;;;;;5.47;1.63;;;20.80;84.00;;;;;;5052779;28;20237;-68
2022/07/15 07:50:31;;;;;;;1.33;0.90;;;20.80;83.90;;;;;;5049853;28;20663;-68
2022/07/15 07:52:58;;;;;;;2.20;1.17;;;20.90;83.60;;;;;;5044219;28;20211;-68
2022/07/15 07:55:26;;;;;;;2.97;1.55;;;20.90;83.10;;;;;;5051457;28;20218;-68
2022/07/15 07:57:55;;;;;;;1.90;1.10;;;20.90;82.90;;;;;;5055375;28;20206;-67
2022/07/15 08:00:24;;;;;;;1.50;0.70;;;21.00;83.10;;;;;;5055189;28;20316;-67
2022/07/15 08:02:51;;;;;;;1.75;1.10;;;21.10;83.10;;;;;;5054021;28;20213;-68
2022/07/15 08:05:18;;;;;;;2.42;1.08;;;21.20;82.60;;;;;;5051484;28;20658;-67
2022/07/15 08:07:45;;;;;;;1.55;1.00;;;21.30;81.70;;;;;;5054086;28;20230;-68
2022/07/15 08:10:12;;;;;;;2.63;1.15;;;21.30;81.30;;;;;;5054067;28;20542;-68
2022/07/15 08:12:41;;;;;;;8.23;1.48;;;21.30;81.20;;;;;;5053410;28;20217;-68
2022/07/15 08:15:10;;;;;;;1.67;0.98;;;21.30;82.00;;;;;;5053568;28;20572;-68
2022/07/15 08:17:37;;;;;;;2.60;1.05;;;21.40;81.40;;;;;;5053550;28;20276;-68
2022/07/15 08:20:07;;;;;;;1.45;0.77;;;21.40;81.00;;;;;;5048887;28;20719;-67
2022/07/15 08:22:34;;;;;;;1.33;0.90;;;21.40;80.30;;;;;;5048969;28;20290;-69
2022/07/15 08:25:01;;;;;;;2.50;1.30;;;21.40;80.80;;;;;;5053232;28;20325;-67
2022/07/15 08:27:27;;;;;;;1.50;1.33;;;21.40;81.30;;;;;;5053168;28;20222;-68
2022/07/15 08:29:56;;;;;;;2.10;0.88;;;21.30;80.40;;;;;;5054062;28;20213;-68
2022/07/15 08:32:22;;;;;;;2.28;0.82;;;21.30;79.30;;;;;;5052177;28;20614;-68
2022/07/15 08:34:49;;;;;;;1.63;0.77;;;21.20;78.80;;;;;;5051277;28;20217;-69
2022/07/15 08:37:16;;;;;;;1.23;0.90;;;21.10;78.20;;;;;;5040276;28;20235;-69
2022/07/15 08:39:43;;;;;;;0.80;0.63;;;21.10;77.80;;;;;;5052594;28;20210;-68
2022/07/15 08:42:28;;;;;;;2.85;0.77;;;21.20;76.20;;;;;;5056616;28;20217;-69
2022/07/15 08:44:56;;;;;;;2.60;0.85;;;21.30;75.20;;;;;;5053846;28;20237;-68
2022/07/15 08:47:23;;;;;;;1.92;0.93;;;21.40;74.10;;;;;;5056105;28;20238;-68
2022/07/15 08:49:57;;;;;;;2.58;0.82;;;21.50;73.40;;;;;;5060278;28;20236;-69
2022/07/15 08:52:25;;;;;;;2.85;0.80;;;21.50;72.30;;;;;;5053140;28;20571;-70
2022/07/15 08:54:53;;;;;;;5.15;0.80;;;21.50;72.30;;;;;;5053659;28;20202;-68
2022/07/15 08:57:24;;;;;;;1.58;0.77;;;21.60;72.20;;;;;;5042923;28;20206;-70
2022/07/15 08:59:52;;;;;;;3.78;0.63;;;21.40;71.30;;;;;;5057412;28;20293;-69
2022/07/15 09:02:21;;;;;;;1.33;0.75;;;21.40;71.20;;;;;;5057849;28;20217;-69
2022/07/15 09:05:21;;;;;;;1.42;0.80;;;21.40;71.50;;;;;;5051655;28;20214;-69
2022/07/15 09:07:53;;;;;;;2.90;0.80;;;21.60;71.30;;;;;;5044951;28;20233;-67
2022/07/15 09:10:20;;;;;;;1.42;0.80;;;21.80;70.70;;;;;;5056649;28;20597;-67
2022/07/15 09:12:50;;;;;;;3.25;0.77;;;21.90;70.30;;;;;;5055661;28;20290;-68
2022/07/15 09:15:31;;;;;;;2.85;1.20;;;21.90;70.60;;;;;;5056782;28;20224;-68
2022/07/15 09:18:11;;;;;;;2.05;0.85;;;21.90;69.70;;;;;;5042919;28;20210;-68
2022/07/15 09:20:39;;;;;;;2.83;1.25;;;21.90;68.70;;;;;;5042035;28;20242;-66
2022/07/15 09:23:06;;;;;;;2.03;0.70;;;21.90;68.50;;;;;;5056824;28;20221;-68
2022/07/15 09:25:34;;;;;;;3.60;1.00;;;21.80;68.70;;;;;;5043612;28;20234;-69
2022/07/15 09:28:02;;;;;;;2.83;0.95;;;21.60;68.60;;;;;;5055601;28;20318;-67
2022/07/15 09:33:38;;;;;;;1.10;0.90;;;21.40;69.30;;;;;;5055647;28;20672;-68
2022/07/15 09:36:08;;;;;;;3.10;1.00;;;21.50;69.80;;;;;;5055995;28;20614;-68
2022/07/15 09:38:41;;;;;;;1.80;0.90;;;21.70;69.80;;;;;;5055424;28;20598;-68
2022/07/15 09:41:08;;;;;;;3.40;1.25;;;21.70;69.60;;;;;;5056183;28;20647;-70
2022/07/15 09:43:49;;;;;;;3.10;0.80;;;21.80;69.80;;;;;;5055650;28;20213;-67
2022/07/15 09:46:16;;;;;;;1.10;1.00;;;22.00;70.00;;;;;;5047171;28;20202;-67
2022/07/15 09:48:47;;;;;;;2.45;0.95;;;22.20;68.90;;;;;;5041570;28;20217;-67
2022/07/15 09:51:14;;;;;;;1.35;0.60;;;22.20;67.90;;;;;;5056737;28;20207;-68
2022/07/15 09:53:41;;;;;;;1.73;0.82;;;22.20;67.60;;;;;;5056118;28;20252;-68
2022/07/15 09:56:10;;;;;;;2.45;0.80;;;22.10;67.40;;;;;;5047578;28;20245;-69
2022/07/15 09:58:39;;;;;;;2.53;0.60;;;22.10;67.20;;;;;;5051494;28;20206;-68
2022/07/15 10:01:08;;;;;;;3.08;1.00;;;22.10;67.20;;;;;;5055929;28;20256;-69
2022/07/15 10:03:35;;;;;;;3.72;1.20;;;22.00;67.50;;;;;;5051421;28;20217;-69
2022/07/15 10:06:04;;;;;;;1.65;1.02;;;22.20;67.80;;;;;;5042917;28;20206;-68
2022/07/15 10:08:32;;;;;;;3.10;0.75;;;22.30;66.80;;;;;;5056532;28;20229;-69
2022/07/15 10:10:59;;;;;;;1.48;0.80;;;22.40;66.70;;;;;;5040899;28;20300;-68
2022/07/15 10:13:40;;;;;;;1.25;0.77;;;22.60;67.10;;;;;;5056707;28;20206;-69
2022/07/15 10:16:22;;;;;;;1.30;0.80;;;22.80;66.00;;;;;;5055827;28;20202;-69
2022/07/15 10:19:00;;;;;;;2.78;0.65;;;23.00;64.60;;;;;;5055488;28;20197;-68
2022/07/15 10:21:39;;;;;;;1.67;0.80;;;23.00;62.90;;;;;;5047281;28;20646;-70
2022/07/15 10:24:26;;;;;;;0.55;0.55;;;23.00;61.90;;;;;;5056279;28;20205;-70
2022/07/15 10:27:15;;;;;;;1.35;1.10;;;23.00;62.10;;;;;;5056069;28;20230;-69
2022/07/15 10:29:42;;;;;;;2.05;0.80;;;23.00;61.50;;;;;;5055592;28;20194;-69
2022/07/15 10:32:09;;;;;;;7.53;1.27;;;22.90;60.70;;;;;;5055817;28;20492;-69
2022/07/15 10:34:38;;;;;;;1.73;0.70;;;22.90;60.90;;;;;;5051941;28;20222;-70
2022/07/15 10:37:10;;;;;;;4.60;0.90;;;22.90;61.30;;;;;;5055775;28;20565;-67
2022/07/15 10:40:05;;;;;;;4.70;0.63;;;23.00;61.90;;;;;;5054458;28;20206;-69
2022/07/15 10:42:59;;;;;;;3.28;1.05;;;23.20;61.70;;;;;;5056347;28;20271;-68
2022/07/15 10:45:25;;;;;;;0.88;0.60;;;23.30;61.00;;;;;;5051523;28;20207;-68
2022/07/15 10:48:25;;;;;;;1.00;0.60;;;23.50;61.10;;;;;;5046376;28;20732;-68
2022/07/15 10:50:52;;;;;;;3.30;1.17;;;23.60;60.40;;;;;;5044633;28;20202;-69
2022/07/15 10:53:25;;;;;;;3.15;0.60;;;23.60;60.10;;;;;;5055778;28;20229;-67
2022/07/15 10:55:52;;;;;;;1.90;0.70;;;23.80;60.30;;;;;;5055192;28;20205;-68
2022/07/15 10:58:20;;;;;;;2.35;0.70;;;23.90;60.00;;;;;;5055615;28;20220;-67
2022/07/15 11:00:48;;;;;;;4.18;0.80;;;23.90;59.80;;;;;;5055150;28;20241;-68
2022/07/15 11:03:17;;;;;;;2.80;0.85;;;23.90;59.40;;;;;;5055306;28;20293;-68
2022/07/15 11:06:04;;;;;;;3.75;1.00;;;23.80;58.60;;;;;;5053379;28;20206;-68
2022/07/15 11:08:54;;;;;;;2.53;0.60;;;23.90;58.50;;;;;;5054787;28;21027;-67
2022/07/15 11:11:46;;;;;;;2.70;0.90;;;24.00;59.00;;;;;;5054937;28;20202;-69
2022/07/15 11:14:42;;;;;;;1.65;0.70;;;24.10;58.80;;;;;;5051022;28;20289;-68
2022/07/15 11:17:10;;;;;;;3.78;0.60;;;24.30;59.00;;;;;;5054587;28;20216;-68
2022/07/15 11:19:37;;;;;;;1.85;0.63;;;24.40;58.60;;;;;;5040310;28;20202;-71
2022/07/15 11:22:04;;;;;;;4.18;0.70;;;24.50;57.90;;;;;;5045514;28;20209;-68
2022/07/15 11:24:35;;;;;;;2.90;0.70;;;24.50;58.40;;;;;;5054420;28;20652;-68
2022/07/15 11:27:02;;;;;;;2.42;0.70;;;24.60;57.80;;;;;;5043028;28;20690;-68
2022/07/15 11:29:45;;;;;;;1.73;0.90;;;24.70;57.70;;;;;;5051393;28;20605;-68
2022/07/15 11:32:12;;;;;;;1.92;0.88;;;24.60;57.70;;;;;;5054515;28;20206;-68
2022/07/15 11:34:41;;;;;;;2.45;0.90;;;24.60;57.90;;;;;;5054385;28;20300;-68
2022/07/15 11:37:09;;;;;;;1.85;0.70;;;24.60;57.50;;;;;;5053540;28;20276;-68
2022/07/15 11:39:37;;;;;;;1.33;0.80;;;24.50;57.40;;;;;;5054245;28;20202;-69
2022/07/15 11:44:49;;;;;;;1.98;0.82;;;24.30;57.50;;;;;;5047485;28;20283;-67
2022/07/15 11:47:16;;;;;;;3.65;0.82;;;24.20;57.10;;;;;;5040719;28;20230;-67
2022/07/15 11:49:44;;;;;;;10.52;1.23;;;24.20;55.90;;;;;;5054292;28;20588;-67
2022/07/15 11:52:14;;;;;;;1.20;0.60;;;24.10;55.40;;;;;;5053840;28;20205;-67
2022/07/15 11:54:43;;;;;;;1.13;0.65;;;24.10;55.30;;;;;;5053059;28;20256;-68
2022/07/15 11:57:12;;;;;;;2.53;0.90;;;24.10;55.60;;;;;;5051075;28;20256;-68
2022/07/15 11:59:39;;;;;;;2.92;0.50;;;24.00;55.80;;;;;;5053385;28;20637;-67
2022/07/15 12:02:07;;;;;;;1.40;0.80;;;23.90;56.10;;;;;;5054031;28;20201;-68
2022/07/15 12:04:34;;;;;;;4.28;0.82;;;23.90;56.30;;;;;;5053900;28;20220;-67
2022/07/15 12:07:02;;;;;;;5.32;0.60;;;24.00;56.10;;;;;;5053329;28;20189;-69
2022/07/15 12:09:40;;;;;;;1.00;0.50;;;24.10;55.90;;;;;;5053998;28;20595;-67
2022/07/15 12:12:08;;;;;;;2.42;0.70;;;24.10;55.50;;;;;;5052163;28;20213;-68
2022/07/15 12:14:35;;;;;;;2.17;0.50;;;24.20;55.30;;;;;;5053761;28;20202;-67
2022/07/15 12:17:02;;;;;;;2.03;0.60;;;24.20;55.20;;;;;;5052688;28;20575;-67
2022/07/15 12:19:31;;;;;;;0.90;0.82;;;24.20;55.20;;;;;;5053096;28;20217;-68
2022/07/15 12:22:00;;;;;;;2.00;0.65;;;24.30;54.40;;;;;;5045248;28;20213;-68
2022/07/15 12:24:36;;;;;;;1.75;0.70;;;24.30;53.40;;;;;;5053317;28;20615;-68
2022/07/15 12:27:05;;;;;;;4.03;0.77;;;24.20;53.00;;;;;;5052804;28;20201;-68
2022/07/15 12:29:34;;;;;;;1.17;0.55;;;24.10;53.30;;;;;;5053703;28;20222;-67
2022/07/15 12:32:03;;;;;;;5.93;0.80;;;24.00;53.80;;;;;;5052955;28;20590;-66
2022/07/15 12:34:50;;;;;;;1.42;0.73;;;24.00;53.60;;;;;;5053366;28;20657;-67
2022/07/15 12:37:20;;;;;;;2.00;0.60;;;23.80;53.80;;;;;;5057398;28;20208;-67
2022/07/15 12:39:57;;;;;;;1.30;0.68;;;23.80;54.50;;;;;;5057496;28;20300;-67
2022/07/15 12:42:25;;;;;;;5.13;1.00;;;23.90;54.80;;;;;;5053269;28;20546;-67
2022/07/15 12:45:12;;;;;;;2.15;0.70;;;23.90;54.60;;;;;;5051350;28;20297;-67
2022/07/15 12:47:57;;;;;;;5.70;0.80;;;23.90;53.00;;;;;;5057561;28;20244;-68
2022/07/15 12:50:24;;;;;;;2.63;0.55;;;23.80;52.60;;;;;;5057588;28;20200;-67
2022/07/15 12:52:53;;;;;;;2.67;0.45;;;23.80;52.90;;;;;;5057293;28;20214;-66
2022/07/15 12:55:22;;;;;;;4.82;0.82;;;23.70;53.40;;;;;;5056647;28;20218;-69
2022/07/15 12:57:49;;;;;;;0.68;0.40;;;23.80;53.50;;;;;;5056254;28;20221;-67
2022/07/15 13:00:20;;;;;;;2.00;0.52;;;23.70;53.00;;;;;;5045120;28;20211;-69
2022/07/15 13:02:58;;;;;;;2.40;0.73;;;23.70;53.50;;;;;;5056291;28;20202;-67
2022/07/15 13:05:25;;;;;;;3.03;0.70;;;23.70;53.90;;;;;;5056531;28;20213;-67